.
WxDataArchive / Data Records for 2015-02-25
2015-02-24 February 2015 2015-02-26

Data Records for Wednesday, 25 February 2015

Time	Temp	Chill	HIndex	Humid	Dewpt	 Wind 	HiWind	WindDir	Rain 	Barom
-----	----	-----	------	-----	-----	------	------	-------	-----	-----
00:00	25.3	25.3	25.3	70	16.9	1	3	248	0.00	29.762 
00:05	25.1	25.1	25.1	70	16.7	0	2	248	0.00	29.762 
00:10	25.0	25.0	25.0	71	16.9	0	3	248	0.00	29.762 
00:15	25.0	25.0	25.0	71	16.9	1	4	248	0.00	29.761 
00:20	24.8	24.8	24.8	71	16.8	0	2	248	0.00	29.761 
00:25	24.7	24.7	24.7	72	17.0	0	3	248	0.00	29.761 
00:30	24.5	24.5	24.5	72	16.8	0	2	248	0.00	29.768 
00:35	24.4	24.4	24.4	72	16.7	0	3	248	0.00	29.768 
00:40	24.2	24.2	24.2	73	16.8	0	2	248	0.00	29.768 
00:45	24.1	24.1	24.1	73	16.7	0	2	248	0.00	29.771 
00:50	23.9	23.9	23.9	73	16.5	0	2	248	0.00	29.771 
00:55	23.9	23.9	23.9	73	16.5	0	2	248	0.00	29.771 
01:00	23.8	23.8	23.8	73	16.4	0	2	248	0.00	29.777 
01:05	23.8	23.8	23.8	73	16.4	0	2	248	0.00	29.777 
01:10	23.8	23.8	23.8	73	16.4	1	2	248	0.00	29.777 
01:15	23.8	23.8	23.8	73	16.4	0	2	248	0.00	29.777 
01:20	23.6	23.6	23.6	73	16.2	0	2	248	0.00	29.777 
01:25	23.6	23.6	23.6	72	15.9	0	1	248	0.00	29.777 
01:30	23.6	23.6	23.6	72	15.9	0	2	248	0.00	29.783 
01:35	23.6	23.6	23.6	72	15.9	0	2	248	0.00	29.783 
01:40	23.6	23.6	23.6	71	15.6	0	1	248	0.00	29.783 
01:45	23.6	23.6	23.6	71	15.6	1	2	248	0.00	29.790 
01:50	23.5	23.5	23.5	70	15.2	0	1	248	0.00	29.790 
01:55	23.5	23.5	23.5	70	15.2	0	2	248	0.00	29.790 
02:00	23.5	23.5	23.5	69	14.9	0	2	248	0.00	29.794 
02:05	23.3	23.3	23.3	69	14.7	0	1	248	0.00	29.794 
02:10	23.2	23.2	23.2	69	14.6	0	2	248	0.00	29.794 
02:15	23.0	23.0	23.0	69	14.4	0	1	248	0.00	29.801 
02:20	22.9	22.9	22.9	69	14.3	0	1	248	0.00	29.801 
02:25	22.7	22.7	22.7	69	14.1	0	1	248	0.00	29.801 
02:30	22.5	22.5	22.5	69	13.9	0	1	248	0.00	29.807 
02:35	22.2	22.2	22.2	69	13.6	0	1	248	0.00	29.807 
02:40	22.1	22.1	22.1	69	13.5	0	0	---	0.00	29.807 
02:45	21.9	21.9	21.9	69	13.3	0	1	248	0.00	29.808 
02:50	21.8	21.8	21.8	69	13.2	0	0	---	0.00	29.808 
02:55	21.6	21.6	21.6	70	13.4	0	0	---	0.00	29.808 
03:00	21.3	21.3	21.3	70	13.1	0	0	---	0.00	29.821 
03:05	21.1	21.1	21.1	70	12.9	0	1	248	0.00	29.821 
03:10	21.0	21.0	21.0	71	13.1	0	1	248	0.00	29.821 
03:15	20.8	20.8	20.8	71	12.9	0	0	---	0.00	29.821 
03:20	20.6	20.6	20.6	71	12.7	0	0	---	0.00	29.821 
03:25	20.6	20.6	20.6	71	12.7	0	1	248	0.00	29.821 
03:30	20.5	20.5	20.5	71	12.6	0	1	248	0.00	29.824 
03:35	20.5	20.5	20.5	71	12.6	0	1	248	0.00	29.824 
03:40	20.3	20.3	20.3	71	12.4	0	0	---	0.00	29.824 
03:45	20.2	20.2	20.2	72	12.6	0	0	---	0.00	29.832 
03:50	20.0	20.0	20.0	72	12.5	0	0	---	0.00	29.832 
03:55	20.0	20.0	20.0	72	12.5	0	1	248	0.00	29.832 
04:00	19.9	19.9	19.9	72	12.4	0	0	---	0.00	29.839 
04:05	19.9	19.9	19.9	73	12.7	0	0	---	0.00	29.839 
04:10	19.9	19.9	19.9	73	12.7	0	1	248	0.00	29.839 
04:15	19.7	19.7	19.7	72	12.2	0	0	---	0.00	29.842 
04:20	19.7	19.7	19.7	73	12.5	0	0	---	0.00	29.842 
04:25	19.4	19.4	19.4	72	11.9	0	0	---	0.00	29.842 
04:30	19.2	19.2	19.2	73	12.0	0	0	---	0.00	29.858 
04:35	18.9	18.9	18.9	73	11.7	0	0	---	0.00	29.858 
04:40	18.8	18.8	18.8	73	11.6	0	0	---	0.00	29.858 
04:45	18.6	18.6	18.6	74	11.7	0	1	248	0.00	29.870 
04:50	18.9	18.9	18.9	74	12.0	0	1	248	0.00	29.870 
04:55	18.9	18.9	18.9	73	11.7	0	1	248	0.00	29.870 
05:00	19.1	19.1	19.1	73	11.9	0	1	248	0.00	29.875 
05:05	19.1	19.1	19.1	73	11.9	0	0	---	0.00	29.875 
05:10	19.1	19.1	19.1	73	11.9	0	0	---	0.00	29.875 
05:15	18.9	18.9	18.9	72	11.4	0	0	---	0.00	29.888 
05:20	18.8	18.8	18.8	72	11.3	0	1	248	0.00	29.888 
05:25	18.8	18.8	18.8	71	11.0	0	1	248	0.00	29.888 
05:30	18.6	18.6	18.6	71	10.8	0	1	248	0.00	29.899 
05:35	18.3	18.3	18.3	71	10.5	0	0	---	0.00	29.899 
05:40	18.0	18.0	18.0	71	10.2	0	0	---	0.00	29.899 
05:45	17.8	17.8	17.8	71	10.0	0	0	---	0.00	29.919 
05:50	17.7	17.7	17.7	71	9.9	0	1	248	0.00	29.919 
05:55	17.7	17.7	17.7	71	9.9	0	1	248	0.00	29.919 
06:00	17.5	17.5	17.5	71	9.7	0	1	248	0.00	29.931 
06:05	17.3	17.3	17.3	70	9.2	0	0	---	0.00	29.931 
06:10	16.9	16.9	16.9	70	8.8	0	1	248	0.00	29.931 
06:15	16.5	16.5	16.5	69	8.1	0	1	248	0.00	29.937 
06:20	16.1	16.1	16.1	69	7.8	0	0	---	0.00	29.937 
06:25	15.7	15.7	15.7	69	7.4	0	0	---	0.00	29.937 
06:30	15.2	15.2	15.2	69	6.9	0	0	---	0.00	29.953 
06:35	14.9	14.9	14.9	69	6.6	0	1	248	0.00	29.953 
06:40	14.6	14.6	14.6	70	6.6	0	0	---	0.00	29.953 
06:45	14.4	14.4	14.4	70	6.4	0	1	248	0.00	29.958 
06:50	14.1	14.1	14.1	71	6.5	0	0	---	0.00	29.958 
06:55	14.0	14.0	14.0	71	6.4	0	1	248	0.00	29.958 
07:00	13.8	13.8	13.8	71	6.2	0	0	---	0.00	29.970 
07:05	13.6	13.6	13.6	71	6.0	0	0	---	0.00	29.970 
07:10	13.3	13.3	13.3	72	6.0	0	0	---	0.00	29.970 
07:15	13.1	13.1	13.1	72	5.8	0	0	---	0.00	29.971 
07:20	12.8	12.8	12.8	72	5.5	0	0	---	0.00	29.971 
07:25	12.4	12.4	12.4	72	5.1	0	0	---	0.00	29.971 
07:30	12.1	12.1	12.1	73	5.1	0	0	---	0.00	29.964 
07:35	11.7	11.7	11.7	73	4.7	0	0	---	0.00	29.964 
07:40	11.6	11.6	11.6	73	4.7	0	0	---	0.00	29.964 
07:45	11.4	11.4	11.4	73	4.5	0	0	---	0.00	29.969 
07:50	11.2	11.2	11.2	74	4.6	0	0	---	0.00	29.969 
07:55	11.2	11.2	11.2	74	4.6	0	0	---	0.00	29.969 
08:00	11.2	11.2	11.2	75	4.9	0	0	---	0.00	29.983 
08:05	11.4	11.4	11.4	76	5.3	0	0	---	0.00	29.983 
08:10	11.7	11.7	11.7	76	5.6	0	0	---	0.00	29.983 
08:15	12.1	12.1	12.1	76	6.0	0	0	---	0.00	29.985 
08:20	12.6	12.6	12.6	76	6.5	0	0	---	0.00	29.985 
08:25	13.3	13.3	13.3	76	7.2	0	0	---	0.00	29.985 
08:30	13.8	13.8	13.8	75	7.4	0	0	---	0.00	29.991 
08:35	14.8	14.8	14.8	74	8.0	0	2	248	0.00	29.991 
08:40	15.7	15.7	15.7	70	7.7	0	2	248	0.00	29.991 
08:45	16.5	16.5	16.5	68	7.8	0	1	248	0.00	30.002 
08:50	17.0	17.0	17.0	67	8.0	0	1	248	0.00	30.002 
08:55	17.7	17.7	17.7	64	7.6	0	2	248	0.00	30.002 
09:00	18.0	18.0	18.0	63	7.6	0	1	248	0.00	30.011 
09:05	18.4	18.4	18.4	62	7.6	0	2	248	0.00	30.011 
09:10	18.9	18.9	18.9	59	7.0	1	2	248	0.00	30.011 
09:15	18.9	18.9	18.9	59	7.0	1	2	248	0.00	30.015 
09:20	19.2	19.2	19.2	59	7.3	0	1	248	0.00	30.015 
09:25	19.9	19.9	19.9	58	7.5	0	1	248	0.00	30.015 
09:30	20.5	20.5	20.5	56	7.3	0	2	248	0.00	30.020 
09:35	21.3	21.3	21.3	55	7.7	0	1	248	0.00	30.020 
09:40	21.8	21.8	21.8	54	7.7	0	3	248	0.00	30.020 
09:45	21.8	21.8	21.8	53	7.3	1	4	248	0.00	30.019 
09:50	21.1	21.1	21.1	54	7.1	1	3	90	0.00	30.019 
09:55	20.6	20.6	20.6	55	7.0	1	3	90	0.00	30.019 
10:00	20.5	20.5	20.5	54	6.5	0	1	90	0.00	30.025 
10:05	20.2	20.2	20.2	55	6.7	0	1	90	0.00	30.025 
10:10	20.6	20.6	20.6	54	6.6	1	4	90	0.00	30.025 
10:15	21.0	21.0	21.0	55	7.4	1	3	90	0.00	30.026 
10:20	21.1	21.1	21.1	54	7.1	0	1	90	0.00	30.026 
10:25	21.3	21.3	21.3	54	7.3	1	3	90	0.00	30.026 
10:30	21.6	21.6	21.6	54	7.6	2	4	90	0.00	30.026 
10:35	21.9	21.9	21.9	54	7.8	1	3	90	0.00	30.026 
10:40	22.1	22.1	22.1	54	8.0	1	3	90	0.00	30.026 
10:45	22.4	22.4	22.4	54	8.3	1	4	90	0.00	30.028 
10:50	22.4	22.4	22.4	54	8.3	1	4	90	0.00	30.028 
10:55	22.4	22.4	22.4	54	8.3	1	5	90	0.00	30.028 
11:00	22.2	22.2	22.2	54	8.1	1	4	90	0.00	30.032 
11:05	21.6	21.6	21.6	55	8.0	2	5	90	0.00	30.032 
11:10	21.4	21.4	21.4	55	7.8	2	4	90	0.00	30.032 
11:15	21.6	21.6	21.6	56	8.4	2	6	112	0.00	30.023 
11:20	21.4	21.4	21.4	55	7.8	3	5	112	0.00	30.023 
11:25	21.6	21.6	21.6	56	8.4	2	4	112	0.00	30.023 
11:30	21.8	21.8	21.8	55	8.1	1	6	112	0.00	30.025 
11:35	21.9	21.9	21.9	55	8.2	2	4	112	0.00	30.025 
11:40	21.9	21.9	21.9	55	8.2	2	5	112	0.00	30.025 
11:45	22.1	22.1	22.1	55	8.4	1	4	112	0.00	30.028 
11:50	22.7	22.7	22.7	54	8.6	1	3	112	0.00	30.028 
11:55	23.0	23.0	23.0	54	8.9	2	4	112	0.00	30.028 
12:00	23.2	23.2	23.2	53	8.6	1	4	112	0.00	30.028 
12:05	23.2	23.2	23.2	53	8.6	1	5	112	0.00	30.028 
12:10	23.3	23.3	23.3	53	8.7	1	3	112	0.00	30.028 
12:15	23.5	23.5	23.5	52	8.5	0	3	112	0.00	30.034 
12:20	23.5	23.5	23.5	52	8.5	0	2	112	0.00	30.034 
12:25	23.9	23.9	23.9	53	9.3	0	3	112	0.00	30.034 
12:30	24.2	24.2	24.2	50	8.3	1	3	112	0.00	30.022 
12:35	24.1	24.1	24.1	51	8.6	1	3	112	0.00	30.022 
12:40	24.1	24.1	24.1	52	9.1	1	3	112	0.00	30.022 
12:45	24.2	24.2	24.2	52	9.1	1	3	112	0.00	30.016 
12:50	24.4	24.4	24.4	51	8.9	1	3	112	0.00	30.016 
12:55	23.9	23.9	23.9	53	9.3	2	5	90	0.00	30.016 
13:00	23.8	23.8	23.8	53	9.2	1	4	90	0.00	29.994 
13:05	24.1	24.1	24.1	52	9.1	0	2	90	0.00	29.994 
13:10	24.2	24.2	24.2	53	9.6	1	3	135	0.00	29.994 
13:15	23.9	23.9	23.9	53	9.3	2	7	90	0.00	29.991 
13:20	23.5	23.5	23.5	54	9.3	1	5	90	0.00	29.991 
13:25	23.5	23.5	23.5	54	9.3	1	5	68	0.00	29.991 
13:30	23.5	23.5	23.5	55	9.7	1	4	90	0.00	29.974 
13:35	23.6	23.6	23.6	54	9.4	1	6	90	0.00	29.974 
13:40	23.5	23.5	23.5	55	9.7	2	6	90	0.00	29.974 
13:45	23.5	23.5	23.5	55	9.7	1	4	90	0.00	29.964 
13:50	23.5	23.5	23.5	54	9.3	2	4	90	0.00	29.964 
13:55	23.5	23.5	23.5	56	10.1	2	5	90	0.00	29.964 
14:00	23.6	23.6	23.6	55	9.8	2	6	90	0.00	29.967 
14:05	23.6	23.6	23.6	55	9.8	2	5	90	0.00	29.967 
14:10	23.8	23.8	23.8	56	10.4	1	5	112	0.00	29.967 
14:15	23.8	23.8	23.8	55	10.0	1	4	112	0.00	29.970 
14:20	23.8	23.8	23.8	56	10.4	1	4	112	0.00	29.970 
14:25	24.1	24.1	24.1	56	10.7	1	5	112	0.00	29.970 
14:30	23.9	23.9	23.9	55	10.1	2	7	112	0.00	29.962 
14:35	23.9	23.9	23.9	56	10.5	1	5	90	0.00	29.962 
14:40	24.2	24.2	24.2	56	10.8	1	4	112	0.00	29.962 
14:45	24.2	24.2	24.2	55	10.4	1	5	112	0.00	29.949 
14:50	24.1	24.1	24.1	56	10.7	2	6	112	0.00	29.949 
14:55	24.2	24.2	24.2	57	11.2	1	4	90	0.00	29.949 
15:00	24.4	24.4	24.4	55	10.6	1	4	90	0.00	29.953 
15:05	24.5	24.5	24.5	57	11.5	1	5	90	0.00	29.953 
15:10	24.8	24.8	24.8	56	11.4	1	6	112	0.00	29.953 
15:15	24.8	24.8	24.8	56	11.4	2	6	90	0.00	29.947 
15:20	24.5	24.5	24.5	56	11.1	3	6	90	0.00	29.947 
15:25	24.2	24.2	24.2	56	10.8	2	7	68	0.00	29.947 
15:30	24.4	24.4	24.4	58	11.8	2	4	112	0.00	29.953 
15:35	24.8	24.8	24.8	56	11.4	1	6	112	0.00	29.953 
15:40	25.0	25.0	25.0	56	11.5	3	6	112	0.00	29.953 
15:45	24.8	24.8	24.8	56	11.4	2	5	90	0.00	29.956 
15:50	24.7	24.7	24.7	57	11.7	2	5	90	0.00	29.956 
15:55	24.7	24.7	24.7	57	11.7	2	6	90	0.00	29.956 
16:00	24.7	24.7	24.7	57	11.7	1	3	90	0.00	29.948 
16:05	24.7	24.7	24.7	57	11.7	2	5	90	0.00	29.948 
16:10	24.5	24.5	24.5	56	11.1	3	6	90	0.00	29.948 
16:15	24.5	24.5	24.5	56	11.1	1	4	90	0.00	29.965 
16:20	24.7	24.7	24.7	58	12.1	2	6	90	0.00	29.965 
16:25	24.7	24.7	24.7	58	12.1	1	6	90	0.00	29.965 
16:30	24.7	24.7	24.7	58	12.1	0	2	90	0.00	29.954 
16:35	24.4	24.4	24.4	57	11.4	3	6	68	0.00	29.954 
16:40	24.1	24.1	24.1	58	11.5	3	6	112	0.00	29.954 
16:45	23.9	23.9	23.9	58	11.3	2	5	90	0.00	29.963 
16:50	23.9	23.9	23.9	58	11.3	2	6	90	0.00	29.963 
16:55	23.8	23.8	23.8	58	11.2	2	5	112	0.00	29.963 
17:00	23.8	23.8	23.8	58	11.2	1	4	90	0.00	29.965 
17:05	23.9	23.9	23.9	56	10.5	0	3	90	0.00	29.965 
17:10	23.9	23.9	23.9	56	10.5	1	4	90	0.00	29.965 
17:15	23.8	23.8	23.8	54	9.6	0	1	90	0.00	29.976 
17:20	23.8	23.8	23.8	53	9.2	0	1	90	0.00	29.976 
17:25	23.8	23.8	23.8	53	9.2	0	2	90	0.00	29.976 
17:30	23.6	23.6	23.6	53	9.0	0	1	90	0.00	29.982 
17:35	23.5	23.5	23.5	52	8.5	0	1	90	0.00	29.982 
17:40	23.3	23.3	23.3	52	8.3	0	1	90	0.00	29.982 
17:45	23.2	23.2	23.2	52	8.2	0	2	90	0.00	29.985 
17:50	23.2	23.2	23.2	52	8.2	1	2	90	0.00	29.985 
17:55	23.0	23.0	23.0	52	8.0	0	5	112	0.00	29.985 
18:00	23.0	23.0	23.0	52	8.0	0	1	112	0.00	29.986 
18:05	22.9	22.9	22.9	52	7.9	0	1	112	0.00	29.986 
18:10	22.7	22.7	22.7	52	7.7	0	1	112	0.00	29.986 
18:15	22.7	22.7	22.7	52	7.7	0	3	112	0.00	29.996 
18:20	22.5	22.5	22.5	51	7.1	0	1	112	0.00	29.996 
18:25	22.4	22.4	22.4	53	7.9	0	2	112	0.00	29.996 
18:30	22.4	22.4	22.4	52	7.5	1	3	112	0.00	30.002 
18:35	22.2	22.2	22.2	53	7.7	1	4	112	0.00	30.002 
18:40	22.1	22.1	22.1	54	8.0	2	4	112	0.00	30.002 
18:45	22.1	22.1	22.1	55	8.4	1	3	112	0.00	30.007 
18:50	21.9	21.9	21.9	55	8.2	1	4	112	0.00	30.007 
18:55	21.8	21.8	21.8	55	8.1	1	3	112	0.00	30.007 
19:00	21.8	21.8	21.8	56	8.5	1	2	112	0.00	30.015 
19:05	21.6	21.6	21.6	57	8.8	1	3	112	0.00	30.015 
19:10	21.6	21.6	21.6	57	8.8	1	3	112	0.00	30.015 
19:15	21.4	21.4	21.4	57	8.6	1	2	112	0.00	30.020 
19:20	21.3	21.3	21.3	58	8.9	1	4	112	0.00	30.020 
19:25	21.3	21.3	21.3	58	8.9	0	2	112	0.00	30.020 
19:30	21.1	21.1	21.1	58	8.7	1	3	112	0.00	30.019 
19:35	21.1	21.1	21.1	58	8.7	1	2	112	0.00	30.019 
19:40	21.1	21.1	21.1	57	8.3	1	3	112	0.00	30.019 
19:45	21.1	21.1	21.1	60	9.4	2	5	112	0.00	30.022 
19:50	20.8	20.8	20.8	63	10.2	3	5	90	0.00	30.022 
19:55	20.5	20.5	20.5	64	10.3	3	6	90	0.00	30.022 
20:00	20.2	20.2	20.2	65	10.3	2	4	90	0.00	30.024 
20:05	20.2	20.2	20.2	65	10.3	1	5	90	0.00	30.024 
20:10	20.2	20.2	20.2	66	10.7	1	4	90	0.00	30.024 
20:15	20.0	20.0	20.0	65	10.2	2	6	90	0.00	30.017 
20:20	19.9	19.9	19.9	65	10.1	2	4	90	0.00	30.017 
20:25	19.7	19.7	19.7	66	10.2	1	3	90	0.00	30.017 
20:30	19.7	19.7	19.7	65	9.9	2	4	90	0.00	30.011 
20:35	19.7	19.7	19.7	65	9.9	1	3	90	0.00	30.011 
20:40	19.5	19.5	19.5	65	9.7	2	4	90	0.00	30.011 
20:45	19.4	19.4	19.4	65	9.6	2	5	90	0.00	30.005 
20:50	19.4	19.4	19.4	66	9.9	1	3	90	0.00	30.005 
20:55	19.4	19.4	19.4	66	9.9	2	5	90	0.00	30.005 
21:00	19.2	19.2	19.2	65	9.4	2	6	90	0.00	30.005 
21:05	19.2	19.2	19.2	66	9.7	2	4	90	0.00	30.005 
21:10	19.1	19.1	19.1	66	9.6	1	5	90	0.00	30.005 
21:15	19.1	19.1	19.1	67	10.0	1	5	90	0.00	30.000 
21:20	18.9	18.9	18.9	67	9.8	2	4	90	0.00	30.000 
21:25	18.9	18.9	18.9	67	9.8	2	5	90	0.00	30.000 
21:30	18.8	18.8	18.8	67	9.7	0	1	90	0.00	30.000 
21:35	18.8	18.8	18.8	67	9.7	0	2	90	0.00	30.000 
21:40	18.6	18.6	18.6	67	9.5	0	2	90	0.00	30.000 
21:45	18.4	18.4	18.4	67	9.3	0	2	90	0.00	30.001 
21:50	18.4	18.4	18.4	67	9.3	0	2	90	0.00	30.001 
21:55	18.3	18.3	18.3	67	9.2	0	2	90	0.00	30.001 
22:00	18.1	18.1	18.1	66	8.7	0	1	90	0.00	30.006 
22:05	18.1	18.1	18.1	66	8.7	0	2	90	0.00	30.006 
22:10	18.0	18.0	18.0	66	8.6	0	1	90	0.00	30.006 
22:15	18.0	18.0	18.0	66	8.6	0	0	---	0.00	30.012 
22:20	18.0	18.0	18.0	67	8.9	0	1	90	0.00	30.012 
22:25	18.0	18.0	18.0	67	8.9	0	1	90	0.00	30.012 
22:30	17.8	17.8	17.8	67	8.7	0	1	90	0.00	30.012 
22:35	17.8	17.8	17.8	67	8.7	0	1	90	0.00	30.012 
22:40	18.0	18.0	18.0	67	8.9	0	1	90	0.00	30.012 
22:45	17.8	17.8	17.8	67	8.7	0	1	90	0.00	30.017 
22:50	18.0	18.0	18.0	67	8.9	0	1	90	0.00	30.017 
22:55	18.0	18.0	18.0	67	8.9	0	1	90	0.00	30.017 
23:00	18.0	18.0	18.0	66	8.6	0	2	90	0.00	30.028 
23:05	18.1	18.1	18.1	66	8.7	0	1	90	0.00	30.028 
23:10	18.1	18.1	18.1	66	8.7	0	2	90	0.00	30.028 
23:15	18.3	18.3	18.3	66	8.9	0	2	90	0.00	30.030 
23:20	18.3	18.3	18.3	66	8.9	0	1	90	0.00	30.030 
23:25	18.3	18.3	18.3	66	8.9	0	1	90	0.00	30.030 
23:30	18.4	18.4	18.4	66	9.0	0	3	90	0.00	30.017 
23:35	18.4	18.4	18.4	66	9.0	0	3	90	0.00	30.017 
23:40	18.3	18.3	18.3	66	8.9	0	3	90	0.00	30.017 
23:45	18.3	18.3	18.3	66	8.9	0	2	22	0.00	30.015 
23:50	18.1	18.1	18.1	66	8.7	0	1	22	0.00	30.015 
23:55	18.1	18.1	18.1	66	8.7	0	2	22	0.00	30.015 

CoCoRaHS
IN-AL-39
A2 Web Hosting
Creative Commons License
GoDaddy
search engine by freefind advanced

loaded 2018-11-20 03:05:45 • last modified 2010-11-18 10:43:29
Privacy PolicyDisclaimer
• wx.awcolley.com is powered by PmWiki v.2002016 •
• all content (unless otherwise noted) © 2018 A W Colley